createdAt,value
2019-05-07T00:01:23.849Z,77.20
2019-05-07T00:03:53.024Z,77.40
2019-05-07T00:06:23.066Z,77.80
2019-05-07T00:08:52.387Z,77.80
2019-05-07T00:11:22.375Z,78.00
2019-05-07T00:13:52.283Z,78.20
2019-05-07T00:16:22.440Z,78.30
2019-05-07T00:18:52.572Z,79.10
2019-05-07T00:21:23.343Z,78.60
2019-05-07T00:23:52.745Z,78.70
2019-05-07T00:26:23.078Z,78.80
2019-05-07T00:28:52.700Z,79.10
2019-05-07T00:31:23.281Z,79.10
2019-05-07T00:33:52.692Z,79.30
2019-05-07T00:36:27.858Z,79.30
2019-05-07T00:39:12.259Z,79.40
2019-05-07T00:41:46.984Z,80.20
2019-05-07T00:44:16.254Z,79.50
2019-05-07T00:46:45.208Z,79.60
2019-05-07T00:49:14.513Z,79.80
2019-05-07T00:51:43.516Z,80.00
2019-05-07T00:54:12.559Z,80.00
2019-05-07T00:56:42.879Z,80.10
2019-05-07T00:59:13.075Z,79.50
2019-05-07T01:01:43.209Z,80.30
2019-05-07T01:04:12.451Z,80.40
2019-05-07T01:06:42.402Z,80.40
2019-05-07T01:09:12.331Z,80.50
2019-05-07T01:11:42.948Z,80.50
2019-05-07T01:14:12.421Z,80.60
2019-05-07T01:16:42.207Z,80.70
2019-05-07T01:19:12.534Z,80.70
2019-05-07T01:21:43.272Z,80.80
2019-05-07T01:24:12.545Z,80.80
2019-05-07T01:26:42.593Z,80.90
2019-05-07T01:29:12.864Z,81.00
2019-05-07T01:31:48.386Z,81.00
2019-05-07T01:34:32.361Z,81.10
2019-05-07T01:37:02.653Z,81.00
2019-05-07T01:39:32.653Z,81.10
2019-05-07T01:42:02.288Z,81.10
2019-05-07T01:44:32.523Z,81.10
2019-05-07T01:47:02.501Z,81.30
2019-05-07T01:49:33.131Z,81.20
2019-05-07T01:52:02.759Z,81.30
2019-05-07T01:54:33.342Z,81.30
2019-05-07T01:57:02.999Z,81.40
2019-05-07T01:59:32.342Z,81.40
2019-05-07T02:02:12.129Z,81.40
2019-05-07T02:04:47.905Z,81.40
2019-05-07T02:07:27.459Z,81.50
2019-05-07T02:10:18.678Z,81.40
2019-05-07T02:12:47.820Z,82.20
2019-05-07T02:15:16.878Z,81.40
2019-05-07T02:17:45.959Z,81.60
2019-05-07T02:20:14.998Z,81.50
2019-05-07T02:22:44.060Z,81.50
2019-05-07T02:25:13.084Z,81.30
2019-05-07T02:27:42.268Z,81.40
2019-05-07T02:30:14.410Z,81.40
2019-05-07T02:32:43.194Z,81.40
2019-05-07T02:35:13.651Z,81.40
2019-05-07T02:37:55.484Z,81.40
2019-05-07T02:40:34.158Z,81.50
2019-05-07T02:43:03.254Z,81.60
2019-05-07T02:45:53.558Z,81.60
2019-05-07T02:48:25.769Z,81.60
2019-05-07T02:51:04.124Z,81.70
2019-05-07T02:53:43.064Z,81.90
2019-05-07T02:56:13.002Z,81.80
2019-05-07T02:58:43.413Z,81.90
2019-05-07T03:01:13.894Z,82.00
2019-05-07T03:03:44.932Z,82.10
2019-05-07T03:06:13.886Z,82.20
2019-05-07T03:08:43.980Z,82.30
2019-05-07T03:11:14.155Z,82.30
2019-05-07T03:13:43.597Z,82.50
2019-05-07T03:16:13.263Z,82.60
2019-05-07T03:18:43.813Z,82.70
2019-05-07T03:21:17.482Z,82.70
2019-05-07T03:24:03.540Z,82.80
2019-05-07T03:26:36.963Z,82.90
2019-05-07T03:29:13.007Z,82.90
2019-05-07T03:32:08.704Z,83.00
2019-05-07T03:34:57.763Z,83.10
2019-05-07T03:37:32.074Z,83.00
2019-05-07T03:39:58.686Z,83.20
2019-05-07T03:42:29.125Z,83.20
2019-05-07T03:45:04.592Z,83.20
2019-05-07T03:47:43.954Z,83.30
2019-05-07T03:50:14.635Z,83.30
2019-05-07T03:52:44.021Z,83.40
2019-05-07T03:55:14.466Z,83.50
2019-05-07T03:57:44.156Z,83.70
2019-05-07T04:00:13.502Z,83.80
2019-05-07T04:02:43.723Z,83.80
2019-05-07T04:05:13.926Z,83.90
2019-05-07T04:07:43.524Z,83.90
2019-05-07T04:10:14.765Z,83.90
2019-05-07T04:12:44.445Z,83.90
2019-05-07T04:15:33.228Z,84.00
2019-05-07T04:18:03.655Z,84.00
2019-05-07T04:20:33.548Z,84.00
2019-05-07T04:23:04.228Z,84.10
2019-05-07T04:26:04.417Z,84.10
2019-05-07T04:28:54.117Z,84.10
2019-05-07T04:31:23.352Z,84.10
2019-05-07T04:33:53.376Z,84.20
2019-05-07T04:36:33.814Z,84.00
2019-05-07T04:39:03.102Z,84.20
2019-05-07T04:41:32.984Z,84.10
2019-05-07T04:44:03.604Z,84.20
2019-05-07T04:46:33.496Z,84.30
2019-05-07T04:49:03.770Z,84.30
2019-05-07T04:51:43.380Z,84.20
2019-05-07T04:54:13.293Z,84.30
2019-05-07T04:56:43.629Z,84.20
2019-05-07T04:59:13.279Z,84.20
2019-05-07T05:01:47.640Z,84.20
2019-05-07T05:04:26.954Z,84.10
2019-05-07T05:06:48.831Z,84.10
2019-05-07T05:09:17.906Z,84.10
2019-05-07T05:11:46.938Z,84.10
2019-05-07T05:14:15.964Z,84.10
2019-05-07T05:16:45.990Z,84.00
2019-05-07T05:19:15.063Z,83.90
2019-05-07T05:22:09.026Z,83.70
2019-05-07T05:24:42.502Z,83.70
2019-05-07T05:27:12.175Z,83.60
2019-05-07T05:29:42.950Z,83.50
2019-05-07T05:32:12.214Z,83.50
2019-05-07T05:34:42.514Z,83.50
2019-05-07T05:37:12.001Z,83.40
2019-05-07T05:39:42.663Z,83.40
2019-05-07T05:42:22.610Z,83.30
2019-05-07T05:44:55.279Z,83.20
2019-05-07T05:47:25.619Z,83.10
2019-05-07T05:49:54.771Z,82.60
2019-05-07T05:52:32.842Z,83.00
2019-05-07T05:55:11.978Z,82.90
2019-05-07T05:58:07.836Z,82.80
2019-05-07T06:00:53.507Z,82.70
2019-05-07T06:03:44.410Z,82.60
2019-05-07T06:06:25.334Z,82.60
2019-05-07T06:09:01.858Z,82.40
2019-05-07T06:11:51.884Z,82.40
2019-05-07T06:14:33.035Z,82.30
2019-05-07T06:17:13.029Z,82.30
2019-05-07T06:19:58.194Z,82.20
2019-05-07T06:22:46.307Z,82.10
2019-05-07T06:25:24.305Z,82.00
2019-05-07T06:27:52.622Z,81.90
2019-05-07T06:30:22.728Z,81.70
2019-05-07T06:32:52.361Z,81.60
2019-05-07T06:35:23.047Z,81.50
2019-05-07T06:37:52.318Z,81.30
2019-05-07T06:40:43.159Z,81.10
2019-05-07T06:43:17.869Z,81.00
2019-05-07T06:45:51.738Z,80.90
2019-05-07T06:48:34.807Z,80.70
2019-05-07T06:50:57.459Z,80.50
2019-05-07T06:53:27.896Z,80.40
2019-05-07T06:55:57.725Z,80.20
2019-05-07T06:58:32.679Z,80.00
2019-05-07T07:01:18.661Z,80.00
2019-05-07T07:04:03.681Z,79.80
2019-05-07T07:06:39.389Z,80.00
2019-05-07T07:09:23.752Z,79.40
2019-05-07T07:11:57.022Z,79.40
2019-05-07T07:14:26.039Z,79.20
2019-05-07T07:16:55.040Z,79.10
2019-05-07T07:19:24.046Z,79.00
2019-05-07T07:21:53.108Z,78.80
2019-05-07T07:24:22.336Z,78.60
2019-05-07T07:26:52.824Z,79.20
2019-05-07T07:29:23.870Z,78.30
2019-05-07T07:31:56.462Z,78.10
2019-05-07T07:34:26.678Z,77.90
2019-05-07T07:37:12.823Z,77.70
2019-05-07T07:39:39.485Z,77.40
2019-05-07T07:42:12.395Z,77.10
2019-05-07T07:44:42.581Z,77.00
2019-05-07T07:47:12.932Z,76.80
2019-05-07T07:49:42.222Z,76.60
2019-05-07T07:52:12.189Z,76.40
2019-05-07T07:54:42.907Z,76.10
2019-05-07T07:57:37.139Z,75.90
2019-05-07T08:00:26.201Z,75.70
2019-05-07T08:02:59.469Z,75.50
2019-05-07T08:05:28.529Z,75.10
2019-05-07T08:07:57.531Z,74.80
2019-05-07T08:10:26.519Z,75.40
2019-05-07T08:12:55.587Z,74.30
2019-05-07T08:15:24.967Z,74.10
2019-05-07T08:17:54.329Z,73.80
2019-05-07T08:20:23.354Z,73.50
2019-05-07T08:22:52.670Z,73.00
2019-05-07T08:25:24.804Z,71.60
2019-05-07T08:27:53.829Z,69.40
2019-05-07T08:30:24.718Z,67.80
2019-05-07T08:33:04.105Z,65.40
2019-05-07T08:35:41.802Z,63.60
2019-05-07T08:38:12.936Z,61.50
2019-05-07T08:40:41.964Z,59.90
2019-05-07T08:43:12.598Z,58.60
2019-05-07T08:46:03.551Z,57.90
2019-05-07T08:48:37.361Z,56.50
2019-05-07T08:51:06.399Z,54.80
2019-05-07T08:53:35.458Z,53.10
2019-05-07T08:56:04.531Z,51.70
2019-05-07T08:58:34.218Z,50.50
2019-05-07T09:01:03.354Z,49.60
2019-05-07T09:03:44.591Z,49.00
2019-05-07T09:06:15.254Z,48.50
2019-05-07T09:08:44.305Z,48.00
2019-05-07T09:11:13.525Z,47.50
2019-05-07T09:13:42.498Z,47.60
2019-05-07T09:16:12.919Z,47.20
2019-05-07T09:18:42.312Z,46.70
2019-05-07T09:21:12.560Z,46.20
2019-05-07T09:23:42.423Z,45.80
2019-05-07T09:26:13.216Z,45.50
2019-05-07T09:29:07.179Z,45.20
2019-05-07T09:31:55.293Z,44.70
2019-05-07T09:34:25.476Z,44.90
2019-05-07T09:36:56.194Z,45.30
2019-05-07T09:39:25.267Z,45.30
2019-05-07T09:41:54.329Z,45.40
2019-05-07T09:44:23.389Z,45.30
2019-05-07T09:46:52.747Z,45.30
2019-05-07T09:49:22.265Z,45.20
2019-05-07T09:51:51.932Z,44.90
2019-05-07T09:54:22.986Z,44.40
2019-05-07T09:56:52.599Z,44.10
2019-05-07T09:59:21.858Z,44.10
2019-05-07T10:01:51.063Z,44.20
2019-05-07T10:04:22.229Z,44.00
2019-05-07T10:06:51.916Z,43.80
2019-05-07T10:09:22.312Z,43.80
2019-05-07T10:11:58.603Z,43.90
2019-05-07T10:14:27.594Z,43.90
2019-05-07T10:17:11.960Z,44.10
2019-05-07T10:19:41.736Z,44.20
2019-05-07T10:22:12.623Z,44.30
2019-05-07T10:24:41.893Z,44.30
2019-05-07T10:27:12.720Z,44.30
2019-05-07T10:29:42.813Z,44.40
2019-05-07T10:32:12.865Z,44.50
2019-05-07T10:34:42.314Z,44.60
2019-05-07T10:37:12.517Z,44.60
2019-05-07T10:39:43.043Z,44.70
2019-05-07T10:42:12.425Z,45.40
2019-05-07T10:44:52.466Z,44.70
2019-05-07T10:47:52.124Z,44.90
2019-05-07T10:50:35.426Z,45.00
2019-05-07T10:52:54.380Z,45.20
2019-05-07T10:55:24.561Z,45.50
2019-05-07T10:57:53.604Z,45.50
2019-05-07T11:00:24.442Z,45.70
2019-05-07T11:02:53.549Z,45.90
2019-05-07T11:05:22.536Z,46.10
2019-05-07T11:07:53.717Z,46.60
2019-05-07T11:10:22.465Z,47.00
2019-05-07T11:12:51.815Z,47.50
2019-05-07T11:15:22.115Z,48.20
2019-05-07T11:18:02.568Z,49.00
2019-05-07T11:20:32.083Z,49.80
2019-05-07T11:23:02.665Z,50.70
2019-05-07T11:25:33.156Z,51.40
2019-05-07T11:28:02.846Z,52.10
2019-05-07T11:30:32.183Z,52.70
2019-05-07T11:33:02.661Z,53.30
2019-05-07T11:35:32.143Z,53.80
2019-05-07T11:38:10.997Z,54.30
2019-05-07T11:40:34.706Z,54.80
2019-05-07T11:43:36.862Z,55.20
2019-05-07T11:46:15.801Z,55.50
2019-05-07T11:48:53.787Z,55.80
2019-05-07T11:51:29.357Z,56.10
2019-05-07T11:54:12.669Z,56.30
2019-05-07T11:56:42.382Z,56.50
2019-05-07T11:59:13.405Z,56.70
2019-05-07T12:01:47.719Z,56.80
2019-05-07T12:04:17.343Z,57.00
2019-05-07T12:06:46.366Z,57.00
2019-05-07T12:09:15.390Z,57.10
2019-05-07T12:11:44.351Z,57.00
2019-05-07T12:14:13.406Z,57.00
2019-05-07T12:16:42.775Z,56.90
2019-05-07T12:19:12.673Z,56.80
2019-05-07T12:21:42.674Z,56.70
2019-05-07T12:24:12.943Z,56.60
2019-05-07T12:26:43.749Z,56.70
2019-05-07T12:29:12.886Z,56.60
2019-05-07T12:32:02.649Z,56.70
2019-05-07T12:34:44.858Z,56.80
2019-05-07T12:37:14.042Z,56.80
2019-05-07T12:39:43.110Z,57.00
2019-05-07T12:42:12.257Z,57.10
2019-05-07T12:44:42.489Z,57.20
2019-05-07T12:47:12.068Z,57.20
2019-05-07T12:49:42.906Z,57.30
2019-05-07T12:52:22.635Z,57.40
2019-05-07T12:55:25.570Z,57.50
2019-05-07T12:57:54.611Z,57.70
2019-05-07T13:01:00.837Z,57.50
2019-05-07T13:04:02.649Z,57.70
2019-05-07T13:06:32.661Z,57.70
2019-05-07T13:09:01.783Z,57.90
2019-05-07T13:11:32.565Z,57.90
2019-05-07T13:14:02.135Z,58.00
2019-05-07T13:16:32.379Z,58.10
2019-05-07T13:19:01.947Z,58.20
2019-05-07T13:21:31.984Z,58.20
2019-05-07T13:24:02.746Z,58.90
2019-05-07T13:26:32.298Z,58.20
2019-05-07T13:29:02.588Z,58.20
2019-05-07T13:31:32.700Z,58.10
2019-05-07T13:34:02.928Z,58.10
2019-05-07T13:36:32.418Z,58.00
2019-05-07T13:39:23.324Z,57.90
2019-05-07T13:42:01.934Z,57.80
2019-05-07T13:44:49.359Z,58.20
2019-05-07T13:47:35.701Z,57.50
2019-05-07T13:50:05.580Z,57.50
2019-05-07T13:52:35.258Z,57.50
2019-05-07T13:55:04.703Z,57.50
2019-05-07T13:57:33.740Z,57.40
2019-05-07T14:00:05.018Z,57.60
2019-05-07T14:02:33.650Z,57.90
2019-05-07T14:05:02.686Z,58.20
2019-05-07T14:07:34.276Z,58.50
2019-05-07T14:10:22.514Z,58.60
2019-05-07T14:12:52.145Z,58.60
2019-05-07T14:15:23.182Z,58.70
2019-05-07T14:17:52.618Z,59.50
2019-05-07T14:20:22.978Z,58.90
2019-05-07T14:22:52.033Z,59.20
2019-05-07T14:25:21.891Z,59.50
2019-05-07T14:27:52.631Z,59.60
2019-05-07T14:30:24.538Z,59.60
2019-05-07T14:33:01.669Z,59.60
2019-05-07T14:35:40.421Z,59.50
2019-05-07T14:38:23.397Z,59.40
2019-05-07T14:40:52.430Z,59.20
2019-05-07T14:43:28.195Z,59.00
2019-05-07T14:45:57.354Z,58.70
2019-05-07T14:48:26.363Z,58.40
2019-05-07T14:50:55.467Z,58.20
2019-05-07T14:53:26.333Z,57.80
2019-05-07T14:55:55.321Z,57.50
2019-05-07T14:58:24.359Z,57.20
2019-05-07T15:00:53.510Z,56.90
2019-05-07T15:03:22.959Z,56.60
2019-05-07T15:05:52.589Z,56.30
2019-05-07T15:08:22.025Z,56.20
2019-05-07T15:10:52.522Z,56.00
2019-05-07T15:13:21.859Z,55.90
2019-05-07T15:15:52.514Z,55.70
2019-05-07T15:18:32.125Z,55.60
2019-05-07T15:21:01.880Z,55.40
2019-05-07T15:23:34.018Z,55.30
2019-05-07T15:26:04.808Z,55.10
2019-05-07T15:28:34.665Z,55.00
2019-05-07T15:31:12.266Z,54.90
2019-05-07T15:33:41.789Z,54.80
2019-05-07T15:36:11.987Z,54.70
2019-05-07T15:38:43.777Z,54.60
2019-05-07T15:41:12.922Z,54.50
2019-05-07T15:43:45.842Z,54.50
2019-05-07T15:46:12.890Z,54.40
2019-05-07T15:48:42.112Z,54.30
2019-05-07T15:51:11.889Z,54.10
2019-05-07T15:53:46.369Z,53.90
2019-05-07T15:56:15.375Z,53.80
2019-05-07T15:58:44.517Z,53.80
2019-05-07T16:01:13.597Z,53.70
2019-05-07T16:03:44.670Z,53.50
2019-05-07T16:06:13.635Z,53.20
2019-05-07T16:08:49.821Z,53.10
2019-05-07T16:11:18.852Z,53.10
2019-05-07T16:14:08.443Z,53.20
2019-05-07T16:17:03.698Z,53.30
2019-05-07T16:19:32.750Z,53.30
2019-05-07T16:22:06.618Z,53.30
2019-05-07T16:24:35.693Z,53.40
2019-05-07T16:27:05.225Z,53.40
2019-05-07T16:29:35.864Z,53.40
2019-05-07T16:32:05.142Z,53.20
2019-05-07T16:34:34.099Z,52.90
2019-05-07T16:37:06.830Z,52.60
2019-05-07T16:39:33.894Z,52.20
2019-05-07T16:42:02.924Z,51.80
2019-05-07T16:44:33.119Z,51.60
2019-05-07T16:47:02.814Z,51.50
2019-05-07T16:49:32.057Z,51.30
2019-05-07T16:52:01.807Z,51.20
2019-05-07T16:54:31.017Z,51.10
2019-05-07T16:57:19.438Z,50.90
2019-05-07T16:59:48.514Z,50.70
2019-05-07T17:02:22.671Z,50.80
2019-05-07T17:05:12.563Z,50.80
2019-05-07T17:07:56.325Z,50.70
2019-05-07T17:10:25.371Z,50.70
2019-05-07T17:12:54.570Z,50.60
2019-05-07T17:15:23.675Z,50.50
2019-05-07T17:17:59.245Z,50.50
2019-05-07T17:20:28.297Z,51.20
2019-05-07T17:22:57.362Z,50.70
2019-05-07T17:25:38.416Z,50.90
2019-05-07T17:28:07.644Z,50.90
2019-05-07T17:30:37.703Z,51.00
2019-05-07T17:33:06.975Z,51.00
2019-05-07T17:35:36.007Z,51.00
2019-05-07T17:38:09.416Z,51.10
2019-05-07T17:40:35.717Z,51.20
2019-05-07T17:43:04.680Z,51.30
2019-05-07T17:45:33.678Z,51.40
2019-05-07T17:48:03.218Z,51.60
2019-05-07T17:50:54.701Z,51.80
2019-05-07T17:53:23.851Z,51.90
2019-05-07T17:55:53.092Z,52.00
2019-05-07T17:58:22.162Z,52.20
2019-05-07T18:00:54.745Z,52.30
2019-05-07T18:03:48.921Z,52.50
2019-05-07T18:06:17.940Z,52.70
2019-05-07T18:08:47.042Z,52.80
2019-05-07T18:11:20.759Z,53.00
2019-05-07T18:13:46.925Z,53.20
2019-05-07T18:16:28.280Z,53.30
2019-05-07T18:18:57.381Z,53.50
2019-05-07T18:21:26.581Z,53.60
2019-05-07T18:23:55.747Z,53.80
2019-05-07T18:26:30.001Z,53.90
2019-05-07T18:28:55.722Z,54.20
2019-05-07T18:31:45.356Z,54.30
2019-05-07T18:34:14.467Z,54.50
2019-05-07T18:36:45.031Z,54.70
2019-05-07T18:39:14.074Z,54.80
2019-05-07T18:41:43.340Z,55.00
2019-05-07T18:44:15.319Z,55.20
2019-05-07T18:46:43.147Z,55.40
2019-05-07T18:49:12.809Z,55.50
2019-05-07T18:51:42.661Z,55.70
2019-05-07T18:54:15.999Z,55.70
2019-05-07T18:56:44.564Z,55.90
2019-05-07T18:59:16.372Z,56.00
2019-05-07T19:01:45.473Z,56.10
2019-05-07T19:04:14.615Z,56.20
2019-05-07T19:06:43.738Z,56.30
2019-05-07T19:09:12.902Z,56.40
2019-05-07T19:11:42.740Z,56.60
2019-05-07T19:14:13.415Z,56.70
2019-05-07T19:16:43.168Z,56.80
2019-05-07T19:19:17.358Z,57.00
2019-05-07T19:21:46.530Z,57.00
2019-05-07T19:24:15.619Z,57.20
2019-05-07T19:26:46.000Z,57.30
2019-05-07T19:29:16.838Z,57.40
2019-05-07T19:31:45.980Z,57.40
2019-05-07T19:34:15.043Z,57.60
2019-05-07T19:36:44.140Z,57.70
2019-05-07T19:39:13.344Z,57.80
2019-05-07T19:41:43.090Z,57.80
2019-05-07T19:44:12.759Z,57.90
2019-05-07T19:46:41.944Z,57.90
2019-05-07T19:49:11.014Z,58.10
2019-05-07T19:51:40.189Z,58.10
2019-05-07T19:54:09.361Z,58.30
2019-05-07T19:56:38.771Z,58.40
2019-05-07T19:59:07.856Z,58.50
2019-05-07T20:01:42.635Z,58.60
2019-05-07T20:04:13.271Z,58.80
2019-05-07T20:07:02.814Z,59.00
2019-05-07T20:09:34.725Z,59.10
2019-05-07T20:12:03.879Z,59.10
2019-05-07T20:14:33.298Z,59.20
2019-05-07T20:17:03.541Z,59.30
2019-05-07T20:19:32.990Z,59.30
2019-05-07T20:22:02.591Z,59.30
2019-05-07T20:24:32.954Z,59.40
2019-05-07T20:27:03.028Z,59.40
2019-05-07T20:29:32.455Z,59.40
2019-05-07T20:32:01.548Z,59.50
2019-05-07T20:34:32.711Z,59.50
2019-05-07T20:37:02.044Z,59.60
2019-05-07T20:39:32.293Z,59.60
2019-05-07T20:42:03.072Z,59.70
2019-05-07T20:44:32.585Z,59.80
2019-05-07T20:47:01.870Z,59.90
2019-05-07T20:49:32.052Z,60.10
2019-05-07T20:52:01.318Z,60.20
2019-05-07T20:54:37.694Z,60.30
2019-05-07T20:57:13.201Z,60.40
2019-05-07T20:59:42.450Z,60.50
2019-05-07T21:02:11.954Z,60.70
2019-05-07T21:04:42.486Z,60.90
2019-05-07T21:07:12.009Z,60.90
2019-05-07T21:09:42.233Z,61.00
2019-05-07T21:12:12.835Z,61.20
2019-05-07T21:14:42.227Z,61.20
2019-05-07T21:17:11.920Z,61.30
2019-05-07T21:19:42.850Z,61.50
2019-05-07T21:22:12.993Z,61.60
2019-05-07T21:24:43.050Z,61.70
2019-05-07T21:27:12.421Z,61.90
2019-05-07T21:29:42.269Z,62.00
2019-05-07T21:32:12.427Z,62.20
2019-05-07T21:34:42.218Z,62.20
2019-05-07T21:37:12.664Z,62.30
2019-05-07T21:39:42.463Z,62.50
2019-05-07T21:42:13.920Z,62.60
2019-05-07T21:44:43.067Z,62.80
2019-05-07T21:47:12.827Z,63.00
2019-05-07T21:49:43.063Z,63.10
2019-05-07T21:52:12.797Z,63.30
2019-05-07T21:54:48.721Z,63.40
2019-05-07T21:57:43.172Z,63.60
2019-05-07T22:00:34.358Z,63.80
2019-05-07T22:03:06.842Z,63.80
2019-05-07T22:05:36.026Z,64.10
2019-05-07T22:08:05.106Z,64.20
2019-05-07T22:10:34.257Z,64.40
2019-05-07T22:13:03.399Z,64.50
2019-05-07T22:15:32.501Z,64.70
2019-05-07T22:18:02.684Z,64.90
2019-05-07T22:20:32.054Z,65.00
2019-05-07T22:23:02.859Z,65.20
2019-05-07T22:25:32.840Z,65.30
2019-05-07T22:28:04.577Z,65.50
2019-05-07T22:30:41.894Z,65.70
2019-05-07T22:33:16.430Z,65.70
2019-05-07T22:35:45.470Z,65.80
2019-05-07T22:38:16.329Z,65.90
2019-05-07T22:40:45.426Z,66.10
2019-05-07T22:43:14.465Z,66.10
2019-05-07T22:45:43.483Z,66.20
2019-05-07T22:48:12.501Z,66.30
2019-05-07T22:50:42.356Z,66.40
2019-05-07T22:53:12.623Z,66.40
2019-05-07T22:55:41.945Z,66.50
2019-05-07T22:58:17.814Z,66.50
2019-05-07T23:00:50.886Z,66.60
2019-05-07T23:03:19.985Z,66.60
2019-05-07T23:05:49.126Z,66.60
2019-05-07T23:08:18.209Z,66.60
2019-05-07T23:10:47.251Z,66.70
2019-05-07T23:13:16.186Z,66.70
2019-05-07T23:15:45.228Z,66.70
2019-05-07T23:18:14.297Z,66.80
2019-05-07T23:20:43.418Z,66.80
2019-05-07T23:23:14.166Z,66.90
2019-05-07T23:25:43.234Z,66.90
2019-05-07T23:28:12.622Z,67.00
2019-05-07T23:30:42.124Z,67.00
2019-05-07T23:33:12.598Z,67.10
2019-05-07T23:35:42.162Z,67.20
2019-05-07T23:38:12.207Z,67.20
2019-05-07T23:41:07.144Z,67.20
2019-05-07T23:43:36.449Z,67.20
2019-05-07T23:46:05.443Z,67.20
2019-05-07T23:48:34.467Z,67.20
2019-05-07T23:51:03.521Z,67.30
2019-05-07T23:53:32.588Z,67.30
2019-05-07T23:56:02.817Z,67.40
2019-05-07T23:58:32.642Z,67.40
